Terminal Aerodrome Forecast
Issued by NWS Sioux Falls, SD

Home | Current Version | Previous Version | Text Only | Print | Product List | Glossary On
Versions: 1 2 3 4 5 6 7 8 9 10 11 12 13 14
000
FTUS43 KFSD 262343
TAFFSD
TAF
KFSD 262343Z 2700/2724 29007KT P6SM SKC
     FM270400 VRB03KT P6SM SKC
     FM271000 VRB03KT P6SM OVC090
     FM271500 01005KT P6SM VCSH OVC060
     FM272100 34006KT P6SM BKN060=

USA.gov is the U.S. government's official web portal to all federal, state and local government web resources and services.